sensor_id;sensor_type;location;lat;lon;timestamp;P1;durP1;ratioP1;P2;durP2;ratioP2
25717;SDS011;13574;52.040;5.692;2023-08-01T00:00:03;7.47;;;4.60;;
25717;SDS011;13574;52.040;5.692;2023-08-01T00:02:33;6.68;;;3.78;;
25717;SDS011;13574;52.040;5.692;2023-08-01T00:04:59;8.75;;;3.88;;
25717;SDS011;13574;52.040;5.692;2023-08-01T00:07:26;8.00;;;4.30;;
25717;SDS011;13574;52.040;5.692;2023-08-01T00:09:52;6.07;;;4.13;;
25717;SDS011;13574;52.040;5.692;2023-08-01T00:12:18;10.18;;;3.90;;
25717;SDS011;13574;52.040;5.692;2023-08-01T00:14:46;6.80;;;3.97;;
25717;SDS011;13574;52.040;5.692;2023-08-01T00:17:12;7.32;;;4.20;;
25717;SDS011;13574;52.040;5.692;2023-08-01T00:19:37;8.52;;;4.32;;
25717;SDS011;13574;52.040;5.692;2023-08-01T00:22:03;8.15;;;3.97;;
25717;SDS011;13574;52.040;5.692;2023-08-01T00:24:29;7.82;;;4.00;;
25717;SDS011;13574;52.040;5.692;2023-08-01T00:26:54;7.85;;;4.05;;
25717;SDS011;13574;52.040;5.692;2023-08-01T00:29:21;8.75;;;4.22;;
25717;SDS011;13574;52.040;5.692;2023-08-01T00:31:47;9.73;;;4.20;;
25717;SDS011;13574;52.040;5.692;2023-08-01T00:34:13;9.27;;;4.30;;
25717;SDS011;13574;52.040;5.692;2023-08-01T00:36:38;8.82;;;4.20;;
25717;SDS011;13574;52.040;5.692;2023-08-01T00:39:04;7.60;;;4.50;;
25717;SDS011;13574;52.040;5.692;2023-08-01T00:41:30;11.27;;;5.43;;
25717;SDS011;13574;52.040;5.692;2023-08-01T00:43:55;9.18;;;4.50;;
25717;SDS011;13574;52.040;5.692;2023-08-01T00:46:21;7.90;;;4.20;;
25717;SDS011;13574;52.040;5.692;2023-08-01T00:48:47;7.03;;;3.97;;
25717;SDS011;13574;52.040;5.692;2023-08-01T00:51:12;7.45;;;3.35;;
25717;SDS011;13574;52.040;5.692;2023-08-01T00:53:39;8.05;;;3.97;;
25717;SDS011;13574;52.040;5.692;2023-08-01T00:56:05;7.78;;;3.50;;
25717;SDS011;13574;52.040;5.692;2023-08-01T00:58:30;6.50;;;3.17;;
25717;SDS011;13574;52.040;5.692;2023-08-01T01:00:56;10.88;;;4.32;;
25717;SDS011;13574;52.040;5.692;2023-08-01T01:03:22;5.88;;;3.55;;
25717;SDS011;13574;52.040;5.692;2023-08-01T01:08:31;7.72;;;3.83;;
25717;SDS011;13574;52.040;5.692;2023-08-01T01:10:57;8.88;;;3.65;;
25717;SDS011;13574;52.040;5.692;2023-08-01T01:13:23;8.10;;;3.78;;
25717;SDS011;13574;52.040;5.692;2023-08-01T01:15:48;6.57;;;3.40;;
25717;SDS011;13574;52.040;5.692;2023-08-01T01:18:14;7.32;;;3.67;;
25717;SDS011;13574;52.040;5.692;2023-08-01T01:20:40;7.05;;;4.10;;
25717;SDS011;13574;52.040;5.692;2023-08-01T01:23:05;6.78;;;4.10;;
25717;SDS011;13574;52.040;5.692;2023-08-01T01:25:33;7.43;;;4.20;;
25717;SDS011;13574;52.040;5.692;2023-08-01T01:28:00;12.02;;;5.05;;
25717;SDS011;13574;52.040;5.692;2023-08-01T01:30:29;7.60;;;4.68;;
25717;SDS011;13574;52.040;5.692;2023-08-01T01:32:55;10.63;;;5.00;;
25717;SDS011;13574;52.040;5.692;2023-08-01T01:35:23;10.68;;;5.35;;
25717;SDS011;13574;52.040;5.692;2023-08-01T01:37:49;11.18;;;6.30;;
25717;SDS011;13574;52.040;5.692;2023-08-01T01:40:14;11.05;;;5.70;;
25717;SDS011;13574;52.040;5.692;2023-08-01T01:42:40;10.00;;;6.05;;
25717;SDS011;13574;52.040;5.692;2023-08-01T01:45:06;11.63;;;7.00;;
25717;SDS011;13574;52.040;5.692;2023-08-01T01:47:32;12.73;;;8.23;;
25717;SDS011;13574;52.040;5.692;2023-08-01T01:49:57;12.90;;;6.93;;
25717;SDS011;13574;52.040;5.692;2023-08-01T01:52:23;16.88;;;7.60;;
25717;SDS011;13574;52.040;5.692;2023-08-01T01:54:49;15.32;;;8.07;;
25717;SDS011;13574;52.040;5.692;2023-08-01T01:57:14;19.92;;;8.88;;
25717;SDS011;13574;52.040;5.692;2023-08-01T01:59:40;14.93;;;8.50;;
25717;SDS011;13574;52.040;5.692;2023-08-01T02:02:06;12.45;;;8.10;;
25717;SDS011;13574;52.040;5.692;2023-08-01T02:04:31;18.88;;;10.38;;
25717;SDS011;13574;52.040;5.692;2023-08-01T02:06:57;18.50;;;9.35;;
25717;SDS011;13574;52.040;5.692;2023-08-01T02:09:23;17.77;;;8.45;;
25717;SDS011;13574;52.040;5.692;2023-08-01T02:11:49;14.98;;;8.68;;
25717;SDS011;13574;52.040;5.692;2023-08-01T02:14:14;18.45;;;9.15;;
25717;SDS011;13574;52.040;5.692;2023-08-01T02:16:40;16.02;;;8.80;;
25717;SDS011;13574;52.040;5.692;2023-08-01T02:19:06;17.60;;;9.05;;
25717;SDS011;13574;52.040;5.692;2023-08-01T02:21:32;14.48;;;8.30;;
25717;SDS011;13574;52.040;5.692;2023-08-01T02:23:57;16.52;;;8.05;;
25717;SDS011;13574;52.040;5.692;2023-08-01T02:26:23;16.88;;;8.15;;
25717;SDS011;13574;52.040;5.692;2023-08-01T02:28:49;18.27;;;9.02;;
25717;SDS011;13574;52.040;5.692;2023-08-01T02:31:15;16.25;;;9.15;;
25717;SDS011;13574;52.040;5.692;2023-08-01T02:33:41;18.20;;;7.93;;
25717;SDS011;13574;52.040;5.692;2023-08-01T02:36:07;20.65;;;8.60;;
25717;SDS011;13574;52.040;5.692;2023-08-01T02:38:33;15.70;;;8.93;;
25717;SDS011;13574;52.040;5.692;2023-08-01T02:40:58;18.15;;;8.52;;
25717;SDS011;13574;52.040;5.692;2023-08-01T02:43:24;20.90;;;8.88;;
25717;SDS011;13574;52.040;5.692;2023-08-01T02:45:50;17.35;;;8.68;;
25717;SDS011;13574;52.040;5.692;2023-08-01T02:48:15;14.80;;;7.82;;
25717;SDS011;13574;52.040;5.692;2023-08-01T02:50:41;16.83;;;7.63;;
25717;SDS011;13574;52.040;5.692;2023-08-01T02:53:06;13.23;;;7.53;;
25717;SDS011;13574;52.040;5.692;2023-08-01T02:55:32;15.57;;;7.53;;
25717;SDS011;13574;52.040;5.692;2023-08-01T02:57:58;14.13;;;7.50;;
25717;SDS011;13574;52.040;5.692;2023-08-01T03:00:23;18.65;;;7.75;;
25717;SDS011;13574;52.040;5.692;2023-08-01T03:02:50;15.00;;;7.18;;
25717;SDS011;13574;52.040;5.692;2023-08-01T03:05:16;17.25;;;7.20;;
25717;SDS011;13574;52.040;5.692;2023-08-01T03:07:42;15.77;;;6.88;;
25717;SDS011;13574;52.040;5.692;2023-08-01T03:10:07;14.50;;;6.75;;
25717;SDS011;13574;52.040;5.692;2023-08-01T03:12:34;15.88;;;6.25;;
25717;SDS011;13574;52.040;5.692;2023-08-01T03:15:00;15.23;;;7.00;;
25717;SDS011;13574;52.040;5.692;2023-08-01T03:17:25;16.88;;;6.07;;
25717;SDS011;13574;52.040;5.692;2023-08-01T03:19:51;18.33;;;6.50;;
25717;SDS011;13574;52.040;5.692;2023-08-01T03:22:17;16.48;;;6.25;;
25717;SDS011;13574;52.040;5.692;2023-08-01T03:24:42;14.40;;;5.75;;
25717;SDS011;13574;52.040;5.692;2023-08-01T03:27:08;19.90;;;5.82;;
25717;SDS011;13574;52.040;5.692;2023-08-01T03:29:34;12.07;;;5.70;;
25717;SDS011;13574;52.040;5.692;2023-08-01T03:31:59;16.27;;;6.20;;
25717;SDS011;13574;52.040;5.692;2023-08-01T03:34:25;14.85;;;5.65;;
25717;SDS011;13574;52.040;5.692;2023-08-01T03:36:51;12.52;;;5.63;;
25717;SDS011;13574;52.040;5.692;2023-08-01T03:39:17;16.33;;;5.50;;
25717;SDS011;13574;52.040;5.692;2023-08-01T03:41:43;12.95;;;5.78;;
25717;SDS011;13574;52.040;5.692;2023-08-01T03:44:09;15.15;;;6.18;;
25717;SDS011;13574;52.040;5.692;2023-08-01T03:46:34;14.88;;;5.82;;
25717;SDS011;13574;52.040;5.692;2023-08-01T03:49:00;12.30;;;5.93;;
25717;SDS011;13574;52.040;5.692;2023-08-01T03:51:26;12.15;;;5.93;;
25717;SDS011;13574;52.040;5.692;2023-08-01T03:53:51;15.45;;;6.63;;
25717;SDS011;13574;52.040;5.692;2023-08-01T03:56:17;13.70;;;6.07;;
25717;SDS011;13574;52.040;5.692;2023-08-01T03:58:42;12.48;;;6.00;;
25717;SDS011;13574;52.040;5.692;2023-08-01T04:01:08;13.85;;;6.13;;
25717;SDS011;13574;52.040;5.692;2023-08-01T04:03:34;11.95;;;6.00;;
25717;SDS011;13574;52.040;5.692;2023-08-01T04:05:59;15.43;;;6.43;;
25717;SDS011;13574;52.040;5.692;2023-08-01T04:08:25;12.38;;;6.10;;
25717;SDS011;13574;52.040;5.692;2023-08-01T04:10:51;11.93;;;5.60;;
25717;SDS011;13574;52.040;5.692;2023-08-01T04:13:16;14.57;;;6.00;;
25717;SDS011;13574;52.040;5.692;2023-08-01T04:15:42;15.13;;;5.70;;
25717;SDS011;13574;52.040;5.692;2023-08-01T04:18:08;16.90;;;6.15;;
25717;SDS011;13574;52.040;5.692;2023-08-01T04:20:33;12.55;;;5.55;;
25717;SDS011;13574;52.040;5.692;2023-08-01T04:22:59;14.23;;;5.03;;
25717;SDS011;13574;52.040;5.692;2023-08-01T04:25:25;12.15;;;3.40;;
25717;SDS011;13574;52.040;5.692;2023-08-01T04:27:52;17.27;;;3.97;;
25717;SDS011;13574;52.040;5.692;2023-08-01T04:30:18;9.45;;;3.63;;
25717;SDS011;13574;52.040;5.692;2023-08-01T04:32:44;9.93;;;3.80;;
25717;SDS011;13574;52.040;5.692;2023-08-01T04:35:09;11.82;;;4.20;;
25717;SDS011;13574;52.040;5.692;2023-08-01T04:37:35;14.65;;;4.30;;
25717;SDS011;13574;52.040;5.692;2023-08-01T04:40:01;10.10;;;4.90;;
25717;SDS011;13574;52.040;5.692;2023-08-01T04:42:27;16.60;;;5.38;;
25717;SDS011;13574;52.040;5.692;2023-08-01T04:44:53;10.52;;;5.13;;
25717;SDS011;13574;52.040;5.692;2023-08-01T04:47:20;13.50;;;6.53;;
25717;SDS011;13574;52.040;5.692;2023-08-01T04:49:46;16.27;;;6.45;;
25717;SDS011;13574;52.040;5.692;2023-08-01T04:52:11;14.98;;;6.28;;
25717;SDS011;13574;52.040;5.692;2023-08-01T04:54:37;14.07;;;6.50;;
25717;SDS011;13574;52.040;5.692;2023-08-01T04:57:03;20.48;;;6.57;;
25717;SDS011;13574;52.040;5.692;2023-08-01T04:59:30;17.17;;;7.05;;
25717;SDS011;13574;52.040;5.692;2023-08-01T05:01:55;17.13;;;6.82;;
25717;SDS011;13574;52.040;5.692;2023-08-01T05:04:21;16.52;;;6.75;;
25717;SDS011;13574;52.040;5.692;2023-08-01T05:06:46;15.05;;;6.07;;
25717;SDS011;13574;52.040;5.692;2023-08-01T05:09:12;15.57;;;6.05;;
25717;SDS011;13574;52.040;5.692;2023-08-01T05:11:38;14.38;;;5.97;;
25717;SDS011;13574;52.040;5.692;2023-08-01T05:14:03;15.85;;;5.88;;
25717;SDS011;13574;52.040;5.692;2023-08-01T05:16:29;15.20;;;5.65;;
25717;SDS011;13574;52.040;5.692;2023-08-01T05:18:55;12.40;;;6.10;;
25717;SDS011;13574;52.040;5.692;2023-08-01T05:21:21;11.90;;;6.32;;
25717;SDS011;13574;52.040;5.692;2023-08-01T05:23:46;14.77;;;6.00;;
25717;SDS011;13574;52.040;5.692;2023-08-01T05:26:12;15.75;;;5.93;;
25717;SDS011;13574;52.040;5.692;2023-08-01T05:28:38;15.82;;;5.72;;
25717;SDS011;13574;52.040;5.692;2023-08-01T05:31:03;15.50;;;5.90;;
25717;SDS011;13574;52.040;5.692;2023-08-01T05:33:29;16.85;;;6.05;;
25717;SDS011;13574;52.040;5.692;2023-08-01T05:35:54;17.42;;;5.70;;
25717;SDS011;13574;52.040;5.692;2023-08-01T05:38:20;14.98;;;5.75;;
25717;SDS011;13574;52.040;5.692;2023-08-01T05:40:46;11.77;;;5.55;;
25717;SDS011;13574;52.040;5.692;2023-08-01T05:43:11;18.20;;;5.97;;
25717;SDS011;13574;52.040;5.692;2023-08-01T05:45:37;15.10;;;5.78;;
25717;SDS011;13574;52.040;5.692;2023-08-01T05:48:03;15.90;;;5.63;;
25717;SDS011;13574;52.040;5.692;2023-08-01T05:50:29;13.52;;;6.93;;
25717;SDS011;13574;52.040;5.692;2023-08-01T05:52:55;14.60;;;6.05;;
25717;SDS011;13574;52.040;5.692;2023-08-01T05:55:23;14.73;;;6.15;;
25717;SDS011;13574;52.040;5.692;2023-08-01T05:57:48;16.35;;;6.00;;
25717;SDS011;13574;52.040;5.692;2023-08-01T06:00:17;14.43;;;6.05;;
25717;SDS011;13574;52.040;5.692;2023-08-01T06:02:45;14.15;;;5.70;;
25717;SDS011;13574;52.040;5.692;2023-08-01T06:05:11;17.30;;;5.88;;
25717;SDS011;13574;52.040;5.692;2023-08-01T06:07:37;15.23;;;5.88;;
25717;SDS011;13574;52.040;5.692;2023-08-01T06:10:02;14.48;;;6.65;;
25717;SDS011;13574;52.040;5.692;2023-08-01T06:12:29;19.90;;;6.30;;
25717;SDS011;13574;52.040;5.692;2023-08-01T06:14:55;12.43;;;6.47;;
25717;SDS011;13574;52.040;5.692;2023-08-01T06:17:20;18.05;;;6.25;;
25717;SDS011;13574;52.040;5.692;2023-08-01T06:19:46;14.93;;;6.00;;
25717;SDS011;13574;52.040;5.692;2023-08-01T06:22:12;13.00;;;5.55;;
25717;SDS011;13574;52.040;5.692;2023-08-01T06:24:38;16.65;;;6.13;;
25717;SDS011;13574;52.040;5.692;2023-08-01T06:27:04;11.70;;;5.88;;
25717;SDS011;13574;52.040;5.692;2023-08-01T06:29:30;14.73;;;5.75;;
25717;SDS011;13574;52.040;5.692;2023-08-01T06:31:56;15.38;;;5.50;;
25717;SDS011;13574;52.040;5.692;2023-08-01T06:34:22;13.95;;;5.47;;
25717;SDS011;13574;52.040;5.692;2023-08-01T06:36:47;12.93;;;5.15;;
25717;SDS011;13574;52.040;5.692;2023-08-01T06:39:13;14.80;;;5.68;;
25717;SDS011;13574;52.040;5.692;2023-08-01T06:41:39;11.25;;;4.85;;
25717;SDS011;13574;52.040;5.692;2023-08-01T06:44:04;15.07;;;5.22;;
25717;SDS011;13574;52.040;5.692;2023-08-01T06:46:30;14.18;;;5.47;;
25717;SDS011;13574;52.040;5.692;2023-08-01T06:48:55;15.60;;;5.00;;
25717;SDS011;13574;52.040;5.692;2023-08-01T06:51:21;10.20;;;5.28;;
25717;SDS011;13574;52.040;5.692;2023-08-01T06:53:47;13.70;;;5.00;;
25717;SDS011;13574;52.040;5.692;2023-08-01T06:56:13;10.75;;;4.72;;
25717;SDS011;13574;52.040;5.692;2023-08-01T06:58:38;13.20;;;4.85;;
25717;SDS011;13574;52.040;5.692;2023-08-01T07:01:04;13.52;;;4.60;;
25717;SDS011;13574;52.040;5.692;2023-08-01T07:03:29;12.38;;;4.32;;
25717;SDS011;13574;52.040;5.692;2023-08-01T07:05:55;10.57;;;4.85;;
25717;SDS011;13574;52.040;5.692;2023-08-01T07:08:21;10.65;;;4.45;;
25717;SDS011;13574;52.040;5.692;2023-08-01T07:10:47;7.65;;;3.53;;
25717;SDS011;13574;52.040;5.692;2023-08-01T07:13:13;9.43;;;3.90;;
25717;SDS011;13574;52.040;5.692;2023-08-01T07:15:38;9.15;;;4.35;;
25717;SDS011;13574;52.040;5.692;2023-08-01T07:18:04;9.57;;;4.13;;
25717;SDS011;13574;52.040;5.692;2023-08-01T07:20:31;10.93;;;4.10;;
25717;SDS011;13574;52.040;5.692;2023-08-01T07:22:57;10.43;;;4.00;;
25717;SDS011;13574;52.040;5.692;2023-08-01T07:25:22;11.30;;;3.92;;
25717;SDS011;13574;52.040;5.692;2023-08-01T07:27:48;8.38;;;3.33;;
25717;SDS011;13574;52.040;5.692;2023-08-01T07:30:13;10.82;;;3.53;;
25717;SDS011;13574;52.040;5.692;2023-08-01T07:32:42;8.65;;;3.20;;
25717;SDS011;13574;52.040;5.692;2023-08-01T07:35:12;8.02;;;3.40;;
25717;SDS011;13574;52.040;5.692;2023-08-01T07:37:38;6.72;;;2.80;;
25717;SDS011;13574;52.040;5.692;2023-08-01T07:40:05;7.78;;;2.50;;
25717;SDS011;13574;52.040;5.692;2023-08-01T07:42:31;7.85;;;3.08;;
25717;SDS011;13574;52.040;5.692;2023-08-01T07:44:57;7.53;;;2.80;;
25717;SDS011;13574;52.040;5.692;2023-08-01T07:47:22;7.80;;;2.97;;
25717;SDS011;13574;52.040;5.692;2023-08-01T07:49:49;8.77;;;2.70;;
25717;SDS011;13574;52.040;5.692;2023-08-01T07:52:15;7.55;;;2.35;;
25717;SDS011;13574;52.040;5.692;2023-08-01T07:54:40;7.20;;;2.95;;
25717;SDS011;13574;52.040;5.692;2023-08-01T07:57:06;7.72;;;2.35;;
25717;SDS011;13574;52.040;5.692;2023-08-01T07:59:32;6.35;;;2.75;;
25717;SDS011;13574;52.040;5.692;2023-08-01T08:01:57;6.70;;;2.60;;
25717;SDS011;13574;52.040;5.692;2023-08-01T08:04:23;8.05;;;2.90;;
25717;SDS011;13574;52.040;5.692;2023-08-01T08:06:48;10.00;;;2.90;;
25717;SDS011;13574;52.040;5.692;2023-08-01T08:09:14;5.35;;;2.72;;
25717;SDS011;13574;52.040;5.692;2023-08-01T08:11:40;7.97;;;3.10;;
25717;SDS011;13574;52.040;5.692;2023-08-01T08:14:05;5.97;;;2.55;;
25717;SDS011;13574;52.040;5.692;2023-08-01T08:16:31;5.93;;;2.38;;
25717;SDS011;13574;52.040;5.692;2023-08-01T08:18:57;7.72;;;2.47;;
25717;SDS011;13574;52.040;5.692;2023-08-01T08:21:22;8.60;;;2.60;;
25717;SDS011;13574;52.040;5.692;2023-08-01T08:23:48;7.63;;;2.33;;
25717;SDS011;13574;52.040;5.692;2023-08-01T08:26:13;8.18;;;2.63;;
25717;SDS011;13574;52.040;5.692;2023-08-01T08:28:39;5.13;;;2.20;;
25717;SDS011;13574;52.040;5.692;2023-08-01T08:31:07;8.13;;;2.42;;
25717;SDS011;13574;52.040;5.692;2023-08-01T08:33:32;5.38;;;2.33;;
25717;SDS011;13574;52.040;5.692;2023-08-01T08:35:58;7.80;;;2.55;;
25717;SDS011;13574;52.040;5.692;2023-08-01T08:38:24;5.93;;;2.22;;
25717;SDS011;13574;52.040;5.692;2023-08-01T08:43:31;6.50;;;2.30;;
25717;SDS011;13574;52.040;5.692;2023-08-01T08:45:59;5.53;;;2.13;;
25717;SDS011;13574;52.040;5.692;2023-08-01T08:48:26;4.85;;;2.17;;
25717;SDS011;13574;52.040;5.692;2023-08-01T08:50:53;6.18;;;2.20;;
25717;SDS011;13574;52.040;5.692;2023-08-01T08:53:21;5.25;;;2.10;;
25717;SDS011;13574;52.040;5.692;2023-08-01T08:55:48;4.20;;;2.00;;
25717;SDS011;13574;52.040;5.692;2023-08-01T08:58:14;4.72;;;1.88;;
25717;SDS011;13574;52.040;5.692;2023-08-01T09:00:41;4.25;;;1.90;;
25717;SDS011;13574;52.040;5.692;2023-08-01T09:03:08;3.88;;;1.88;;
25717;SDS011;13574;52.040;5.692;2023-08-01T09:05:40;3.90;;;2.10;;
25717;SDS011;13574;52.040;5.692;2023-08-01T09:08:23;4.55;;;1.73;;
25717;SDS011;13574;52.040;5.692;2023-08-01T09:10:52;4.65;;;1.60;;
25717;SDS011;13574;52.040;5.692;2023-08-01T09:13:18;3.78;;;1.60;;
25717;SDS011;13574;52.040;5.692;2023-08-01T09:15:43;5.03;;;1.60;;
25717;SDS011;13574;52.040;5.692;2023-08-01T09:18:10;6.50;;;1.80;;
25717;SDS011;13574;52.040;5.692;2023-08-01T09:20:46;3.55;;;1.83;;
25717;SDS011;13574;52.040;5.692;2023-08-01T09:23:13;3.78;;;1.50;;
25717;SDS011;13574;52.040;5.692;2023-08-01T09:25:40;4.10;;;1.50;;
25717;SDS011;13574;52.040;5.692;2023-08-01T09:28:16;6.63;;;2.17;;
25717;SDS011;13574;52.040;5.692;2023-08-01T09:33:13;3.63;;;1.75;;
25717;SDS011;13574;52.040;5.692;2023-08-01T09:35:38;5.60;;;1.92;;
25717;SDS011;13574;52.040;5.692;2023-08-01T09:38:07;4.65;;;1.55;;
25717;SDS011;13574;52.040;5.692;2023-08-01T09:40:39;6.00;;;1.58;;
25717;SDS011;13574;52.040;5.692;2023-08-01T09:43:05;4.00;;;1.73;;
25717;SDS011;13574;52.040;5.692;2023-08-01T09:45:31;4.50;;;1.60;;
25717;SDS011;13574;52.040;5.692;2023-08-01T09:47:57;4.25;;;1.40;;
25717;SDS011;13574;52.040;5.692;2023-08-01T09:50:23;6.15;;;1.77;;
25717;SDS011;13574;52.040;5.692;2023-08-01T09:52:49;5.35;;;1.92;;
25717;SDS011;13574;52.040;5.692;2023-08-01T09:55:38;5.10;;;1.98;;
25717;SDS011;13574;52.040;5.692;2023-08-01T09:58:04;5.80;;;1.90;;
25717;SDS011;13574;52.040;5.692;2023-08-01T10:00:32;7.60;;;2.20;;
25717;SDS011;13574;52.040;5.692;2023-08-01T10:02:59;5.93;;;2.13;;
25717;SDS011;13574;52.040;5.692;2023-08-01T10:05:26;8.82;;;2.20;;
25717;SDS011;13574;52.040;5.692;2023-08-01T10:08:00;6.43;;;2.08;;
25717;SDS011;13574;52.040;5.692;2023-08-01T10:12:54;5.55;;;2.15;;
25717;SDS011;13574;52.040;5.692;2023-08-01T10:15:21;4.38;;;1.90;;
25717;SDS011;13574;52.040;5.692;2023-08-01T10:17:51;8.25;;;2.15;;
25717;SDS011;13574;52.040;5.692;2023-08-01T10:20:17;7.35;;;2.08;;
25717;SDS011;13574;52.040;5.692;2023-08-01T10:22:45;2.65;;;1.58;;
25717;SDS011;13574;52.040;5.692;2023-08-01T10:25:12;6.25;;;2.25;;
25717;SDS011;13574;52.040;5.692;2023-08-01T10:27:39;6.18;;;1.83;;
25717;SDS011;13574;52.040;5.692;2023-08-01T10:30:06;3.42;;;1.60;;
25717;SDS011;13574;52.040;5.692;2023-08-01T10:34:59;5.57;;;2.05;;
25717;SDS011;13574;52.040;5.692;2023-08-01T10:37:25;5.78;;;2.05;;
25717;SDS011;13574;52.040;5.692;2023-08-01T10:39:59;5.78;;;1.98;;
25717;SDS011;13574;52.040;5.692;2023-08-01T10:42:25;9.00;;;2.08;;
25717;SDS011;13574;52.040;5.692;2023-08-01T10:45:01;4.85;;;2.03;;
25717;SDS011;13574;52.040;5.692;2023-08-01T10:47:27;5.80;;;2.20;;
25717;SDS011;13574;52.040;5.692;2023-08-01T10:49:53;7.68;;;1.80;;
25717;SDS011;13574;52.040;5.692;2023-08-01T10:52:22;4.65;;;1.88;;
25717;SDS011;13574;52.040;5.692;2023-08-01T10:57:23;7.15;;;2.00;;
25717;SDS011;13574;52.040;5.692;2023-08-01T10:59:49;6.05;;;1.88;;
25717;SDS011;13574;52.040;5.692;2023-08-01T11:02:25;4.22;;;1.98;;
25717;SDS011;13574;52.040;5.692;2023-08-01T11:04:59;5.70;;;1.70;;
25717;SDS011;13574;52.040;5.692;2023-08-01T11:07:25;4.43;;;1.48;;
25717;SDS011;13574;52.040;5.692;2023-08-01T11:10:08;4.53;;;1.60;;
25717;SDS011;13574;52.040;5.692;2023-08-01T11:12:34;4.78;;;1.63;;
25717;SDS011;13574;52.040;5.692;2023-08-01T11:15:02;3.42;;;1.30;;
25717;SDS011;13574;52.040;5.692;2023-08-01T11:17:29;4.50;;;1.70;;
25717;SDS011;13574;52.040;5.692;2023-08-01T11:20:03;4.30;;;1.40;;
25717;SDS011;13574;52.040;5.692;2023-08-01T11:22:31;3.35;;;1.60;;
25717;SDS011;13574;52.040;5.692;2023-08-01T11:24:56;6.38;;;1.60;;
25717;SDS011;13574;52.040;5.692;2023-08-01T11:27:23;3.60;;;1.40;;
25717;SDS011;13574;52.040;5.692;2023-08-01T11:29:49;3.35;;;1.58;;
25717;SDS011;13574;52.040;5.692;2023-08-01T11:32:15;4.85;;;1.92;;
25717;SDS011;13574;52.040;5.692;2023-08-01T11:34:41;5.32;;;1.80;;
25717;SDS011;13574;52.040;5.692;2023-08-01T11:37:10;4.80;;;1.75;;
25717;SDS011;13574;52.040;5.692;2023-08-01T11:39:36;5.82;;;2.00;;
25717;SDS011;13574;52.040;5.692;2023-08-01T11:42:02;4.45;;;1.75;;
25717;SDS011;13574;52.040;5.692;2023-08-01T11:44:30;5.28;;;1.75;;
25717;SDS011;13574;52.040;5.692;2023-08-01T11:46:57;3.95;;;1.83;;
25717;SDS011;13574;52.040;5.692;2023-08-01T11:49:22;6.00;;;2.10;;
25717;SDS011;13574;52.040;5.692;2023-08-01T11:51:51;5.03;;;1.80;;
25717;SDS011;13574;52.040;5.692;2023-08-01T11:54:17;3.72;;;1.80;;
25717;SDS011;13574;52.040;5.692;2023-08-01T11:56:43;4.93;;;1.80;;
25717;SDS011;13574;52.040;5.692;2023-08-01T11:59:15;5.65;;;2.08;;
25717;SDS011;13574;52.040;5.692;2023-08-01T12:01:42;4.75;;;1.77;;
25717;SDS011;13574;52.040;5.692;2023-08-01T12:04:11;7.25;;;1.88;;
25717;SDS011;13574;52.040;5.692;2023-08-01T12:06:39;4.05;;;1.77;;
25717;SDS011;13574;52.040;5.692;2023-08-01T12:09:07;7.30;;;1.80;;
25717;SDS011;13574;52.040;5.692;2023-08-01T12:11:37;3.83;;;1.50;;
25717;SDS011;13574;52.040;5.692;2023-08-01T12:14:24;3.80;;;1.42;;
25717;SDS011;13574;52.040;5.692;2023-08-01T12:16:49;4.85;;;1.73;;
25717;SDS011;13574;52.040;5.692;2023-08-01T12:19:18;6.38;;;1.75;;
25717;SDS011;13574;52.040;5.692;2023-08-01T12:21:45;7.70;;;2.05;;
25717;SDS011;13574;52.040;5.692;2023-08-01T12:24:11;5.13;;;1.80;;
25717;SDS011;13574;52.040;5.692;2023-08-01T12:26:37;7.97;;;1.70;;
25717;SDS011;13574;52.040;5.692;2023-08-01T12:29:03;7.88;;;1.98;;
25717;SDS011;13574;52.040;5.692;2023-08-01T12:31:28;5.95;;;2.00;;
25717;SDS011;13574;52.040;5.692;2023-08-01T12:33:54;4.97;;;1.67;;
25717;SDS011;13574;52.040;5.692;2023-08-01T12:36:20;4.15;;;1.75;;
25717;SDS011;13574;52.040;5.692;2023-08-01T12:38:46;5.72;;;2.30;;
25717;SDS011;13574;52.040;5.692;2023-08-01T12:41:11;6.72;;;1.85;;
25717;SDS011;13574;52.040;5.692;2023-08-01T12:43:37;7.30;;;1.73;;
25717;SDS011;13574;52.040;5.692;2023-08-01T12:46:03;7.25;;;1.77;;
25717;SDS011;13574;52.040;5.692;2023-08-01T12:48:29;5.15;;;1.70;;
25717;SDS011;13574;52.040;5.692;2023-08-01T12:50:55;7.72;;;1.70;;
25717;SDS011;13574;52.040;5.692;2023-08-01T12:53:21;4.10;;;1.50;;
25717;SDS011;13574;52.040;5.692;2023-08-01T12:55:47;7.63;;;2.22;;
25717;SDS011;13574;52.040;5.692;2023-08-01T12:58:14;5.57;;;1.55;;
25717;SDS011;13574;52.040;5.692;2023-08-01T13:00:41;8.35;;;1.75;;
25717;SDS011;13574;52.040;5.692;2023-08-01T13:03:07;7.22;;;2.00;;
25717;SDS011;13574;52.040;5.692;2023-08-01T13:05:34;7.80;;;1.98;;
25717;SDS011;13574;52.040;5.692;2023-08-01T13:08:04;7.40;;;1.95;;
25717;SDS011;13574;52.040;5.692;2023-08-01T13:10:30;7.93;;;1.80;;
25717;SDS011;13574;52.040;5.692;2023-08-01T13:12:57;5.53;;;2.05;;
25717;SDS011;13574;52.040;5.692;2023-08-01T13:15:23;5.25;;;2.45;;
25717;SDS011;13574;52.040;5.692;2023-08-01T13:17:49;6.57;;;1.95;;
25717;SDS011;13574;52.040;5.692;2023-08-01T13:20:15;6.15;;;1.92;;
25717;SDS011;13574;52.040;5.692;2023-08-01T13:22:41;6.13;;;1.80;;
25717;SDS011;13574;52.040;5.692;2023-08-01T13:25:07;5.30;;;1.90;;
25717;SDS011;13574;52.040;5.692;2023-08-01T13:27:34;5.13;;;1.52;;
25717;SDS011;13574;52.040;5.692;2023-08-01T13:30:01;5.10;;;1.73;;
25717;SDS011;13574;52.040;5.692;2023-08-01T13:32:27;8.82;;;1.70;;
25717;SDS011;13574;52.040;5.692;2023-08-01T13:34:52;5.03;;;1.48;;
25717;SDS011;13574;52.040;5.692;2023-08-01T13:37:18;6.55;;;1.73;;
25717;SDS011;13574;52.040;5.692;2023-08-01T13:39:44;5.03;;;1.60;;
25717;SDS011;13574;52.040;5.692;2023-08-01T13:42:11;5.13;;;1.55;;
25717;SDS011;13574;52.040;5.692;2023-08-01T13:44:37;5.13;;;2.00;;
25717;SDS011;13574;52.040;5.692;2023-08-01T13:47:05;5.07;;;1.95;;
25717;SDS011;13574;52.040;5.692;2023-08-01T13:49:30;8.07;;;2.20;;
25717;SDS011;13574;52.040;5.692;2023-08-01T13:51:56;8.07;;;2.42;;
25717;SDS011;13574;52.040;5.692;2023-08-01T13:54:22;6.25;;;2.15;;
25717;SDS011;13574;52.040;5.692;2023-08-01T13:56:47;5.80;;;2.20;;
25717;SDS011;13574;52.040;5.692;2023-08-01T13:59:13;4.65;;;1.70;;
25717;SDS011;13574;52.040;5.692;2023-08-01T14:01:39;4.53;;;1.55;;
25717;SDS011;13574;52.040;5.692;2023-08-01T14:04:04;3.78;;;1.45;;
25717;SDS011;13574;52.040;5.692;2023-08-01T14:06:30;5.63;;;1.70;;
25717;SDS011;13574;52.040;5.692;2023-08-01T14:08:56;4.18;;;1.60;;
25717;SDS011;13574;52.040;5.692;2023-08-01T14:11:21;6.68;;;2.10;;
25717;SDS011;13574;52.040;5.692;2023-08-01T14:13:48;5.18;;;1.50;;
25717;SDS011;13574;52.040;5.692;2023-08-01T14:16:14;4.22;;;1.42;;
25717;SDS011;13574;52.040;5.692;2023-08-01T14:18:42;4.28;;;1.63;;
25717;SDS011;13574;52.040;5.692;2023-08-01T14:21:09;4.75;;;1.45;;
25717;SDS011;13574;52.040;5.692;2023-08-01T14:23:34;4.93;;;1.60;;
25717;SDS011;13574;52.040;5.692;2023-08-01T14:26:02;3.83;;;1.13;;
25717;SDS011;13574;52.040;5.692;2023-08-01T14:28:28;6.70;;;1.48;;
25717;SDS011;13574;52.040;5.692;2023-08-01T14:30:54;6.30;;;2.10;;
25717;SDS011;13574;52.040;5.692;2023-08-01T14:33:20;6.68;;;1.67;;
25717;SDS011;13574;52.040;5.692;2023-08-01T14:35:46;5.50;;;1.77;;
25717;SDS011;13574;52.040;5.692;2023-08-01T14:38:11;4.03;;;1.55;;
25717;SDS011;13574;52.040;5.692;2023-08-01T14:40:37;7.80;;;1.55;;
25717;SDS011;13574;52.040;5.692;2023-08-01T14:43:04;6.35;;;1.80;;
25717;SDS011;13574;52.040;5.692;2023-08-01T14:45:36;5.80;;;1.70;;
25717;SDS011;13574;52.040;5.692;2023-08-01T14:48:04;4.47;;;1.50;;
25717;SDS011;13574;52.040;5.692;2023-08-01T14:50:30;6.55;;;1.95;;
25717;SDS011;13574;52.040;5.692;2023-08-01T14:52:56;5.65;;;1.73;;